sensor_id;sensor_type;location;lat;lon;timestamp;P1;durP1;ratioP1;P2;durP2;ratioP2
16998;SDS011;10211;49.476;11.010;2022-11-18T00:01:03;0.10;;;0.10;;
16998;SDS011;10211;49.476;11.010;2022-11-18T00:03:31;0.10;;;0.10;;
16998;SDS011;10211;49.476;11.010;2022-11-18T00:05:58;0.20;;;0.20;;
16998;SDS011;10211;49.476;11.010;2022-11-18T00:08:26;0.10;;;0.10;;
16998;SDS011;10211;49.476;11.010;2022-11-18T00:10:56;0.20;;;0.20;;
16998;SDS011;10211;49.476;11.010;2022-11-18T00:13:32;0.20;;;0.20;;
16998;SDS011;10211;49.476;11.010;2022-11-18T00:16:17;0.10;;;0.10;;
16998;SDS011;10211;49.476;11.010;2022-11-18T00:18:47;0.20;;;0.20;;
16998;SDS011;10211;49.476;11.010;2022-11-18T00:21:13;0.40;;;0.40;;
16998;SDS011;10211;49.476;11.010;2022-11-18T00:23:42;0.10;;;0.10;;
16998;SDS011;10211;49.476;11.010;2022-11-18T00:26:11;0.20;;;0.20;;
16998;SDS011;10211;49.476;11.010;2022-11-18T00:28:39;0.10;;;0.10;;
16998;SDS011;10211;49.476;11.010;2022-11-18T00:31:07;0.27;;;0.27;;
16998;SDS011;10211;49.476;11.010;2022-11-18T00:33:36;0.20;;;0.20;;
16998;SDS011;10211;49.476;11.010;2022-11-18T00:36:04;0.33;;;0.33;;
16998;SDS011;10211;49.476;11.010;2022-11-18T00:38:32;0.40;;;0.40;;
16998;SDS011;10211;49.476;11.010;2022-11-18T00:41:00;0.20;;;0.20;;
16998;SDS011;10211;49.476;11.010;2022-11-18T00:43:31;0.20;;;0.20;;
16998;SDS011;10211;49.476;11.010;2022-11-18T00:45:58;0.20;;;0.20;;
16998;SDS011;10211;49.476;11.010;2022-11-18T00:48:25;0.20;;;0.20;;
16998;SDS011;10211;49.476;11.010;2022-11-18T00:50:52;0.20;;;0.20;;
16998;SDS011;10211;49.476;11.010;2022-11-18T00:53:21;0.20;;;0.20;;
16998;SDS011;10211;49.476;11.010;2022-11-18T00:55:49;0.37;;;0.37;;
16998;SDS011;10211;49.476;11.010;2022-11-18T00:58:18;0.20;;;0.20;;
16998;SDS011;10211;49.476;11.010;2022-11-18T01:00:48;0.20;;;0.20;;
16998;SDS011;10211;49.476;11.010;2022-11-18T01:03:17;0.10;;;0.10;;
16998;SDS011;10211;49.476;11.010;2022-11-18T01:05:44;0.20;;;0.20;;
16998;SDS011;10211;49.476;11.010;2022-11-18T01:08:12;0.10;;;0.10;;
16998;SDS011;10211;49.476;11.010;2022-11-18T01:10:40;0.30;;;0.30;;
16998;SDS011;10211;49.476;11.010;2022-11-18T01:13:10;0.10;;;0.10;;
16998;SDS011;10211;49.476;11.010;2022-11-18T01:15:44;0.30;;;0.30;;
16998;SDS011;10211;49.476;11.010;2022-11-18T01:18:14;0.20;;;0.20;;
16998;SDS011;10211;49.476;11.010;2022-11-18T01:20:43;0.20;;;0.20;;
16998;SDS011;10211;49.476;11.010;2022-11-18T01:23:11;0.10;;;0.10;;
16998;SDS011;10211;49.476;11.010;2022-11-18T01:25:40;0.20;;;0.20;;
16998;SDS011;10211;49.476;11.010;2022-11-18T01:28:09;0.17;;;0.17;;
16998;SDS011;10211;49.476;11.010;2022-11-18T01:30:37;0.20;;;0.20;;
16998;SDS011;10211;49.476;11.010;2022-11-18T01:33:06;0.20;;;0.20;;
16998;SDS011;10211;49.476;11.010;2022-11-18T01:35:35;0.10;;;0.10;;
16998;SDS011;10211;49.476;11.010;2022-11-18T01:38:02;0.20;;;0.20;;
16998;SDS011;10211;49.476;11.010;2022-11-18T01:40:30;3.13;;;1.17;;
16998;SDS011;10211;49.476;11.010;2022-11-18T01:42:57;0.20;;;0.20;;
16998;SDS011;10211;49.476;11.010;2022-11-18T01:45:29;0.20;;;0.20;;
16998;SDS011;10211;49.476;11.010;2022-11-18T01:48:01;0.20;;;0.20;;
16998;SDS011;10211;49.476;11.010;2022-11-18T01:50:38;0.20;;;0.20;;
16998;SDS011;10211;49.476;11.010;2022-11-18T01:53:10;0.10;;;0.10;;
16998;SDS011;10211;49.476;11.010;2022-11-18T01:55:44;0.10;;;0.10;;
16998;SDS011;10211;49.476;11.010;2022-11-18T01:58:14;0.10;;;0.10;;
16998;SDS011;10211;49.476;11.010;2022-11-18T02:00:45;0.20;;;0.20;;
16998;SDS011;10211;49.476;11.010;2022-11-18T02:03:14;0.10;;;0.10;;
16998;SDS011;10211;49.476;11.010;2022-11-18T02:05:42;0.10;;;0.10;;
16998;SDS011;10211;49.476;11.010;2022-11-18T02:08:14;0.20;;;0.20;;
16998;SDS011;10211;49.476;11.010;2022-11-18T02:10:42;0.20;;;0.20;;
16998;SDS011;10211;49.476;11.010;2022-11-18T02:13:09;0.20;;;0.20;;
16998;SDS011;10211;49.476;11.010;2022-11-18T02:15:41;0.23;;;0.23;;
16998;SDS011;10211;49.476;11.010;2022-11-18T02:18:16;0.10;;;0.10;;
16998;SDS011;10211;49.476;11.010;2022-11-18T02:20:54;0.20;;;0.20;;
16998;SDS011;10211;49.476;11.010;2022-11-18T02:26:47;0.10;;;0.10;;
16998;SDS011;10211;49.476;11.010;2022-11-18T02:29:32;0.70;;;0.70;;
16998;SDS011;10211;49.476;11.010;2022-11-18T02:32:08;0.60;;;0.60;;
16998;SDS011;10211;49.476;11.010;2022-11-18T02:34:43;0.70;;;0.70;;
16998;SDS011;10211;49.476;11.010;2022-11-18T02:37:15;0.27;;;0.27;;
16998;SDS011;10211;49.476;11.010;2022-11-18T02:39:49;0.20;;;0.20;;
16998;SDS011;10211;49.476;11.010;2022-11-18T02:42:20;0.20;;;0.20;;
16998;SDS011;10211;49.476;11.010;2022-11-18T02:44:51;0.20;;;0.20;;
16998;SDS011;10211;49.476;11.010;2022-11-18T02:47:22;0.10;;;0.10;;
16998;SDS011;10211;49.476;11.010;2022-11-18T02:49:53;0.20;;;0.20;;
16998;SDS011;10211;49.476;11.010;2022-11-18T02:52:23;0.10;;;0.10;;
16998;SDS011;10211;49.476;11.010;2022-11-18T02:54:52;0.20;;;0.20;;
16998;SDS011;10211;49.476;11.010;2022-11-18T02:57:21;0.10;;;0.10;;
16998;SDS011;10211;49.476;11.010;2022-11-18T02:59:52;0.10;;;0.10;;
16998;SDS011;10211;49.476;11.010;2022-11-18T03:02:19;0.20;;;0.20;;
16998;SDS011;10211;49.476;11.010;2022-11-18T03:04:47;0.20;;;0.20;;
16998;SDS011;10211;49.476;11.010;2022-11-18T03:07:20;0.20;;;0.20;;
16998;SDS011;10211;49.476;11.010;2022-11-18T03:09:52;0.10;;;0.10;;
16998;SDS011;10211;49.476;11.010;2022-11-18T03:12:22;0.10;;;0.10;;
16998;SDS011;10211;49.476;11.010;2022-11-18T03:14:59;0.20;;;0.20;;
16998;SDS011;10211;49.476;11.010;2022-11-18T03:17:31;0.20;;;0.20;;
16998;SDS011;10211;49.476;11.010;2022-11-18T03:20:09;0.73;;;0.73;;
16998;SDS011;10211;49.476;11.010;2022-11-18T03:22:43;0.20;;;0.20;;
16998;SDS011;10211;49.476;11.010;2022-11-18T03:25:16;0.10;;;0.10;;
16998;SDS011;10211;49.476;11.010;2022-11-18T03:27:52;2.43;;;0.70;;
16998;SDS011;10211;49.476;11.010;2022-11-18T03:30:25;0.20;;;0.20;;
16998;SDS011;10211;49.476;11.010;2022-11-18T03:32:57;0.20;;;0.20;;
16998;SDS011;10211;49.476;11.010;2022-11-18T03:35:28;0.20;;;0.20;;
16998;SDS011;10211;49.476;11.010;2022-11-18T03:38:00;2.93;;;2.83;;
16998;SDS011;10211;49.476;11.010;2022-11-18T03:40:30;0.20;;;0.20;;
16998;SDS011;10211;49.476;11.010;2022-11-18T03:43:08;0.40;;;0.40;;
16998;SDS011;10211;49.476;11.010;2022-11-18T03:45:40;0.13;;;0.13;;
16998;SDS011;10211;49.476;11.010;2022-11-18T03:48:11;0.20;;;0.20;;
16998;SDS011;10211;49.476;11.010;2022-11-18T03:50:42;0.20;;;0.20;;
16998;SDS011;10211;49.476;11.010;2022-11-18T03:53:13;0.20;;;0.20;;
16998;SDS011;10211;49.476;11.010;2022-11-18T03:55:43;0.10;;;0.10;;
16998;SDS011;10211;49.476;11.010;2022-11-18T03:58:15;0.30;;;0.30;;
16998;SDS011;10211;49.476;11.010;2022-11-18T04:00:47;0.10;;;0.10;;
16998;SDS011;10211;49.476;11.010;2022-11-18T04:03:17;0.20;;;0.20;;
16998;SDS011;10211;49.476;11.010;2022-11-18T04:05:45;0.20;;;0.20;;
16998;SDS011;10211;49.476;11.010;2022-11-18T04:08:16;0.10;;;0.10;;
16998;SDS011;10211;49.476;11.010;2022-11-18T04:10:51;0.20;;;0.20;;
16998;SDS011;10211;49.476;11.010;2022-11-18T04:13:25;0.30;;;0.30;;
16998;SDS011;10211;49.476;11.010;2022-11-18T04:16:03;0.10;;;0.10;;
16998;SDS011;10211;49.476;11.010;2022-11-18T04:18:33;0.10;;;0.10;;
16998;SDS011;10211;49.476;11.010;2022-11-18T04:21:00;0.17;;;0.17;;
16998;SDS011;10211;49.476;11.010;2022-11-18T04:23:27;0.20;;;0.20;;
16998;SDS011;10211;49.476;11.010;2022-11-18T04:25:54;0.20;;;0.20;;
16998;SDS011;10211;49.476;11.010;2022-11-18T04:28:21;0.10;;;0.10;;
16998;SDS011;10211;49.476;11.010;2022-11-18T04:30:47;0.20;;;0.20;;
16998;SDS011;10211;49.476;11.010;2022-11-18T04:33:16;0.20;;;0.20;;
16998;SDS011;10211;49.476;11.010;2022-11-18T04:35:45;0.20;;;0.20;;
16998;SDS011;10211;49.476;11.010;2022-11-18T04:38:11;0.10;;;0.10;;
16998;SDS011;10211;49.476;11.010;2022-11-18T04:40:38;0.20;;;0.20;;
16998;SDS011;10211;49.476;11.010;2022-11-18T04:43:05;0.10;;;0.10;;
16998;SDS011;10211;49.476;11.010;2022-11-18T04:45:32;0.10;;;0.10;;
16998;SDS011;10211;49.476;11.010;2022-11-18T04:48:01;0.20;;;0.20;;
16998;SDS011;10211;49.476;11.010;2022-11-18T04:50:29;0.20;;;0.20;;
16998;SDS011;10211;49.476;11.010;2022-11-18T04:52:55;0.10;;;0.10;;
16998;SDS011;10211;49.476;11.010;2022-11-18T04:55:22;0.20;;;0.20;;
16998;SDS011;10211;49.476;11.010;2022-11-18T04:57:51;0.20;;;0.20;;
16998;SDS011;10211;49.476;11.010;2022-11-18T05:00:18;0.20;;;0.20;;
16998;SDS011;10211;49.476;11.010;2022-11-18T05:02:47;0.10;;;0.10;;
16998;SDS011;10211;49.476;11.010;2022-11-18T05:05:13;0.10;;;0.10;;
16998;SDS011;10211;49.476;11.010;2022-11-18T05:07:42;0.20;;;0.20;;
16998;SDS011;10211;49.476;11.010;2022-11-18T05:10:08;0.10;;;0.10;;
16998;SDS011;10211;49.476;11.010;2022-11-18T05:12:35;0.20;;;0.20;;
16998;SDS011;10211;49.476;11.010;2022-11-18T05:15:13;0.20;;;0.20;;
16998;SDS011;10211;49.476;11.010;2022-11-18T05:17:41;0.20;;;0.20;;
16998;SDS011;10211;49.476;11.010;2022-11-18T05:20:08;0.20;;;0.20;;
16998;SDS011;10211;49.476;11.010;2022-11-18T05:22:36;0.20;;;0.20;;
16998;SDS011;10211;49.476;11.010;2022-11-18T05:25:07;0.10;;;0.10;;
16998;SDS011;10211;49.476;11.010;2022-11-18T05:27:35;0.20;;;0.20;;
16998;SDS011;10211;49.476;11.010;2022-11-18T05:30:03;0.20;;;0.20;;
16998;SDS011;10211;49.476;11.010;2022-11-18T05:32:30;0.20;;;0.20;;
16998;SDS011;10211;49.476;11.010;2022-11-18T05:35:01;0.10;;;0.10;;
16998;SDS011;10211;49.476;11.010;2022-11-18T05:37:30;0.20;;;0.20;;
16998;SDS011;10211;49.476;11.010;2022-11-18T05:39:58;0.20;;;0.20;;
16998;SDS011;10211;49.476;11.010;2022-11-18T05:42:30;0.20;;;0.20;;
16998;SDS011;10211;49.476;11.010;2022-11-18T05:45:14;0.20;;;0.20;;
16998;SDS011;10211;49.476;11.010;2022-11-18T05:47:43;0.10;;;0.10;;
16998;SDS011;10211;49.476;11.010;2022-11-18T05:50:44;0.20;;;0.20;;
16998;SDS011;10211;49.476;11.010;2022-11-18T05:53:17;0.23;;;0.23;;
16998;SDS011;10211;49.476;11.010;2022-11-18T05:55:46;0.20;;;0.20;;
16998;SDS011;10211;49.476;11.010;2022-11-18T05:58:18;0.10;;;0.10;;
16998;SDS011;10211;49.476;11.010;2022-11-18T06:00:48;0.10;;;0.10;;
16998;SDS011;10211;49.476;11.010;2022-11-18T06:03:23;0.10;;;0.10;;
16998;SDS011;10211;49.476;11.010;2022-11-18T06:05:54;0.10;;;0.10;;
16998;SDS011;10211;49.476;11.010;2022-11-18T06:08:23;0.20;;;0.20;;
16998;SDS011;10211;49.476;11.010;2022-11-18T06:10:54;0.10;;;0.10;;
16998;SDS011;10211;49.476;11.010;2022-11-18T06:13:21;0.20;;;0.20;;
16998;SDS011;10211;49.476;11.010;2022-11-18T06:15:51;0.20;;;0.20;;
16998;SDS011;10211;49.476;11.010;2022-11-18T06:18:19;0.20;;;0.20;;
16998;SDS011;10211;49.476;11.010;2022-11-18T06:20:49;0.10;;;0.10;;
16998;SDS011;10211;49.476;11.010;2022-11-18T06:23:19;0.20;;;0.20;;
16998;SDS011;10211;49.476;11.010;2022-11-18T06:25:46;0.10;;;0.10;;
16998;SDS011;10211;49.476;11.010;2022-11-18T06:28:14;0.10;;;0.10;;
16998;SDS011;10211;49.476;11.010;2022-11-18T06:30:41;0.20;;;0.20;;
16998;SDS011;10211;49.476;11.010;2022-11-18T06:33:08;0.20;;;0.20;;
16998;SDS011;10211;49.476;11.010;2022-11-18T06:35:36;0.20;;;0.20;;
16998;SDS011;10211;49.476;11.010;2022-11-18T06:38:03;0.20;;;0.20;;
16998;SDS011;10211;49.476;11.010;2022-11-18T06:40:31;0.10;;;0.10;;
16998;SDS011;10211;49.476;11.010;2022-11-18T06:43:02;0.10;;;0.10;;
16998;SDS011;10211;49.476;11.010;2022-11-18T06:45:48;0.20;;;0.20;;
16998;SDS011;10211;49.476;11.010;2022-11-18T06:48:30;0.20;;;0.20;;
16998;SDS011;10211;49.476;11.010;2022-11-18T06:50:57;0.20;;;0.20;;
16998;SDS011;10211;49.476;11.010;2022-11-18T06:53:24;0.10;;;0.10;;
16998;SDS011;10211;49.476;11.010;2022-11-18T06:55:52;0.20;;;0.20;;
16998;SDS011;10211;49.476;11.010;2022-11-18T06:58:19;0.10;;;0.10;;
16998;SDS011;10211;49.476;11.010;2022-11-18T07:00:46;0.20;;;0.20;;
16998;SDS011;10211;49.476;11.010;2022-11-18T07:03:12;0.20;;;0.20;;
16998;SDS011;10211;49.476;11.010;2022-11-18T07:05:39;0.20;;;0.20;;
16998;SDS011;10211;49.476;11.010;2022-11-18T07:08:06;0.10;;;0.10;;
16998;SDS011;10211;49.476;11.010;2022-11-18T07:10:32;0.20;;;0.20;;
16998;SDS011;10211;49.476;11.010;2022-11-18T07:13:01;0.10;;;0.10;;
16998;SDS011;10211;49.476;11.010;2022-11-18T07:15:27;0.20;;;0.20;;
16998;SDS011;10211;49.476;11.010;2022-11-18T07:17:54;0.20;;;0.20;;
16998;SDS011;10211;49.476;11.010;2022-11-18T07:20:21;0.20;;;0.20;;
16998;SDS011;10211;49.476;11.010;2022-11-18T07:22:50;1.80;;;1.70;;
16998;SDS011;10211;49.476;11.010;2022-11-18T07:25:17;0.20;;;0.20;;
16998;SDS011;10211;49.476;11.010;2022-11-18T07:27:44;0.10;;;0.10;;
16998;SDS011;10211;49.476;11.010;2022-11-18T07:30:13;0.10;;;0.10;;
16998;SDS011;10211;49.476;11.010;2022-11-18T07:32:40;0.10;;;0.10;;
16998;SDS011;10211;49.476;11.010;2022-11-18T07:35:07;0.10;;;0.10;;
16998;SDS011;10211;49.476;11.010;2022-11-18T07:37:34;0.10;;;0.10;;
16998;SDS011;10211;49.476;11.010;2022-11-18T07:40:01;3.03;;;2.77;;
16998;SDS011;10211;49.476;11.010;2022-11-18T07:42:28;0.10;;;0.10;;
16998;SDS011;10211;49.476;11.010;2022-11-18T07:45:07;0.10;;;0.10;;
16998;SDS011;10211;49.476;11.010;2022-11-18T07:47:36;0.20;;;0.20;;
16998;SDS011;10211;49.476;11.010;2022-11-18T07:50:04;0.20;;;0.20;;
16998;SDS011;10211;49.476;11.010;2022-11-18T07:52:32;0.20;;;0.20;;
16998;SDS011;10211;49.476;11.010;2022-11-18T07:55:01;0.10;;;0.10;;
16998;SDS011;10211;49.476;11.010;2022-11-18T07:57:28;0.20;;;0.20;;
16998;SDS011;10211;49.476;11.010;2022-11-18T07:59:55;1.50;;;1.43;;
16998;SDS011;10211;49.476;11.010;2022-11-18T08:02:22;0.20;;;0.20;;
16998;SDS011;10211;49.476;11.010;2022-11-18T08:04:50;0.20;;;0.20;;
16998;SDS011;10211;49.476;11.010;2022-11-18T08:07:17;0.10;;;0.10;;
16998;SDS011;10211;49.476;11.010;2022-11-18T08:09:44;0.20;;;0.20;;
16998;SDS011;10211;49.476;11.010;2022-11-18T08:12:11;0.20;;;0.20;;
16998;SDS011;10211;49.476;11.010;2022-11-18T08:14:41;0.20;;;0.20;;
16998;SDS011;10211;49.476;11.010;2022-11-18T08:17:08;1.50;;;1.50;;
16998;SDS011;10211;49.476;11.010;2022-11-18T08:19:35;0.20;;;0.20;;
16998;SDS011;10211;49.476;11.010;2022-11-18T08:22:03;0.20;;;0.20;;
16998;SDS011;10211;49.476;11.010;2022-11-18T08:24:30;0.20;;;0.20;;
16998;SDS011;10211;49.476;11.010;2022-11-18T08:26:57;0.83;;;0.83;;
16998;SDS011;10211;49.476;11.010;2022-11-18T08:29:24;0.20;;;0.20;;
16998;SDS011;10211;49.476;11.010;2022-11-18T08:31:52;0.20;;;0.20;;
16998;SDS011;10211;49.476;11.010;2022-11-18T08:34:20;0.20;;;0.20;;
16998;SDS011;10211;49.476;11.010;2022-11-18T08:36:46;0.10;;;0.10;;
16998;SDS011;10211;49.476;11.010;2022-11-18T08:39:15;0.20;;;0.20;;
16998;SDS011;10211;49.476;11.010;2022-11-18T08:41:42;0.10;;;0.10;;
16998;SDS011;10211;49.476;11.010;2022-11-18T08:44:12;0.10;;;0.10;;
16998;SDS011;10211;49.476;11.010;2022-11-18T08:46:39;0.20;;;0.20;;
16998;SDS011;10211;49.476;11.010;2022-11-18T08:49:06;0.13;;;0.13;;
16998;SDS011;10211;49.476;11.010;2022-11-18T08:51:33;0.10;;;0.10;;
16998;SDS011;10211;49.476;11.010;2022-11-18T08:54:00;0.13;;;0.13;;
16998;SDS011;10211;49.476;11.010;2022-11-18T08:56:28;0.37;;;0.37;;
16998;SDS011;10211;49.476;11.010;2022-11-18T08:58:55;0.10;;;0.10;;
16998;SDS011;10211;49.476;11.010;2022-11-18T09:01:22;0.10;;;0.10;;
16998;SDS011;10211;49.476;11.010;2022-11-18T09:03:49;0.20;;;0.20;;
16998;SDS011;10211;49.476;11.010;2022-11-18T09:06:17;0.20;;;0.20;;
16998;SDS011;10211;49.476;11.010;2022-11-18T09:08:45;0.10;;;0.10;;
16998;SDS011;10211;49.476;11.010;2022-11-18T09:11:14;0.10;;;0.10;;
16998;SDS011;10211;49.476;11.010;2022-11-18T09:13:43;0.10;;;0.10;;
16998;SDS011;10211;49.476;11.010;2022-11-18T09:16:11;0.20;;;0.20;;
16998;SDS011;10211;49.476;11.010;2022-11-18T09:18:38;0.20;;;0.20;;
16998;SDS011;10211;49.476;11.010;2022-11-18T09:21:06;0.20;;;0.20;;
16998;SDS011;10211;49.476;11.010;2022-11-18T09:23:34;0.20;;;0.20;;
16998;SDS011;10211;49.476;11.010;2022-11-18T09:26:03;0.10;;;0.10;;
16998;SDS011;10211;49.476;11.010;2022-11-18T09:28:32;0.20;;;0.20;;
16998;SDS011;10211;49.476;11.010;2022-11-18T09:31:03;0.10;;;0.10;;
16998;SDS011;10211;49.476;11.010;2022-11-18T09:33:32;0.10;;;0.10;;
16998;SDS011;10211;49.476;11.010;2022-11-18T09:35:59;0.10;;;0.10;;
16998;SDS011;10211;49.476;11.010;2022-11-18T09:38:27;0.20;;;0.20;;
16998;SDS011;10211;49.476;11.010;2022-11-18T09:40:56;0.20;;;0.20;;
16998;SDS011;10211;49.476;11.010;2022-11-18T09:43:29;0.10;;;0.10;;
16998;SDS011;10211;49.476;11.010;2022-11-18T09:46:13;0.20;;;0.20;;
16998;SDS011;10211;49.476;11.010;2022-11-18T09:48:47;0.20;;;0.20;;
16998;SDS011;10211;49.476;11.010;2022-11-18T09:51:33;0.20;;;0.20;;
16998;SDS011;10211;49.476;11.010;2022-11-18T09:54:07;0.10;;;0.10;;
16998;SDS011;10211;49.476;11.010;2022-11-18T09:56:37;0.13;;;0.13;;
16998;SDS011;10211;49.476;11.010;2022-11-18T09:59:05;0.20;;;0.20;;
16998;SDS011;10211;49.476;11.010;2022-11-18T10:01:34;0.10;;;0.10;;
16998;SDS011;10211;49.476;11.010;2022-11-18T10:04:01;0.20;;;0.20;;
16998;SDS011;10211;49.476;11.010;2022-11-18T10:06:30;0.10;;;0.10;;
16998;SDS011;10211;49.476;11.010;2022-11-18T10:09:02;0.20;;;0.20;;
16998;SDS011;10211;49.476;11.010;2022-11-18T10:11:37;0.20;;;0.20;;
16998;SDS011;10211;49.476;11.010;2022-11-18T10:14:21;0.10;;;0.10;;
16998;SDS011;10211;49.476;11.010;2022-11-18T10:17:02;0.20;;;0.20;;
16998;SDS011;10211;49.476;11.010;2022-11-18T10:19:36;0.20;;;0.20;;
16998;SDS011;10211;49.476;11.010;2022-11-18T10:22:11;0.40;;;0.40;;
16998;SDS011;10211;49.476;11.010;2022-11-18T10:24:44;0.10;;;0.10;;
16998;SDS011;10211;49.476;11.010;2022-11-18T10:27:16;0.10;;;0.10;;
16998;SDS011;10211;49.476;11.010;2022-11-18T10:29:43;0.10;;;0.10;;
16998;SDS011;10211;49.476;11.010;2022-11-18T10:32:15;0.20;;;0.20;;
16998;SDS011;10211;49.476;11.010;2022-11-18T10:34:47;0.10;;;0.10;;
16998;SDS011;10211;49.476;11.010;2022-11-18T10:37:21;0.17;;;0.17;;
16998;SDS011;10211;49.476;11.010;2022-11-18T10:39:52;0.20;;;0.20;;
16998;SDS011;10211;49.476;11.010;2022-11-18T10:42:25;0.10;;;0.10;;
16998;SDS011;10211;49.476;11.010;2022-11-18T10:44:55;0.10;;;0.10;;
16998;SDS011;10211;49.476;11.010;2022-11-18T10:47:44;0.20;;;0.20;;
16998;SDS011;10211;49.476;11.010;2022-11-18T10:50:33;0.20;;;0.20;;
16998;SDS011;10211;49.476;11.010;2022-11-18T10:53:02;0.20;;;0.20;;
16998;SDS011;10211;49.476;11.010;2022-11-18T10:55:34;0.10;;;0.10;;
16998;SDS011;10211;49.476;11.010;2022-11-18T10:58:07;0.10;;;0.10;;
16998;SDS011;10211;49.476;11.010;2022-11-18T11:00:43;0.17;;;0.17;;
16998;SDS011;10211;49.476;11.010;2022-11-18T11:03:25;0.20;;;0.20;;
16998;SDS011;10211;49.476;11.010;2022-11-18T11:09:08;0.20;;;0.20;;
16998;SDS011;10211;49.476;11.010;2022-11-18T11:11:55;0.20;;;0.20;;
16998;SDS011;10211;49.476;11.010;2022-11-18T11:14:25;0.10;;;0.10;;
16998;SDS011;10211;49.476;11.010;2022-11-18T11:16:56;0.20;;;0.20;;
16998;SDS011;10211;49.476;11.010;2022-11-18T11:19:30;0.20;;;0.20;;
16998;SDS011;10211;49.476;11.010;2022-11-18T11:22:03;0.20;;;0.20;;
16998;SDS011;10211;49.476;11.010;2022-11-18T11:24:34;0.20;;;0.20;;
16998;SDS011;10211;49.476;11.010;2022-11-18T11:27:06;0.10;;;0.10;;
16998;SDS011;10211;49.476;11.010;2022-11-18T11:29:49;0.20;;;0.20;;
16998;SDS011;10211;49.476;11.010;2022-11-18T11:32:33;0.10;;;0.10;;
16998;SDS011;10211;49.476;11.010;2022-11-18T11:35:11;0.10;;;0.10;;
16998;SDS011;10211;49.476;11.010;2022-11-18T11:37:48;0.10;;;0.10;;
16998;SDS011;10211;49.476;11.010;2022-11-18T11:40:20;0.10;;;0.10;;
16998;SDS011;10211;49.476;11.010;2022-11-18T11:42:59;0.10;;;0.10;;
16998;SDS011;10211;49.476;11.010;2022-11-18T11:45:40;0.20;;;0.20;;
16998;SDS011;10211;49.476;11.010;2022-11-18T11:48:21;0.10;;;0.10;;
16998;SDS011;10211;49.476;11.010;2022-11-18T11:50:59;0.10;;;0.10;;
16998;SDS011;10211;49.476;11.010;2022-11-18T11:53:41;0.20;;;0.20;;
16998;SDS011;10211;49.476;11.010;2022-11-18T11:56:25;0.20;;;0.20;;
16998;SDS011;10211;49.476;11.010;2022-11-18T11:59:01;0.83;;;0.83;;
16998;SDS011;10211;49.476;11.010;2022-11-18T12:01:37;1.57;;;1.47;;
16998;SDS011;10211;49.476;11.010;2022-11-18T12:04:18;2.63;;;1.30;;
16998;SDS011;10211;49.476;11.010;2022-11-18T12:06:56;1.93;;;1.70;;
16998;SDS011;10211;49.476;11.010;2022-11-18T12:09:26;1.33;;;1.23;;
16998;SDS011;10211;49.476;11.010;2022-11-18T12:12:06;2.03;;;1.80;;
16998;SDS011;10211;49.476;11.010;2022-11-18T12:14:52;1.60;;;1.50;;
16998;SDS011;10211;49.476;11.010;2022-11-18T12:17:23;2.67;;;1.80;;
16998;SDS011;10211;49.476;11.010;2022-11-18T12:19:57;1.90;;;1.80;;
16998;SDS011;10211;49.476;11.010;2022-11-18T12:22:30;1.97;;;1.87;;
16998;SDS011;10211;49.476;11.010;2022-11-18T12:25:48;3.93;;;1.90;;
16998;SDS011;10211;49.476;11.010;2022-11-18T12:28:22;2.63;;;2.03;;
16998;SDS011;10211;49.476;11.010;2022-11-18T12:34:17;1.70;;;1.60;;
16998;SDS011;10211;49.476;11.010;2022-11-18T12:36:53;1.53;;;1.43;;
16998;SDS011;10211;49.476;11.010;2022-11-18T12:42:32;2.10;;;1.90;;
16998;SDS011;10211;49.476;11.010;2022-11-18T12:48:30;1.70;;;1.60;;
16998;SDS011;10211;49.476;11.010;2022-11-18T12:50:59;1.67;;;1.57;;
16998;SDS011;10211;49.476;11.010;2022-11-18T12:53:29;1.50;;;1.40;;
16998;SDS011;10211;49.476;11.010;2022-11-18T12:56:09;1.70;;;1.60;;
16998;SDS011;10211;49.476;11.010;2022-11-18T12:58:45;2.07;;;1.53;;
16998;SDS011;10211;49.476;11.010;2022-11-18T13:01:14;1.70;;;1.60;;
16998;SDS011;10211;49.476;11.010;2022-11-18T13:03:42;1.50;;;1.40;;
16998;SDS011;10211;49.476;11.010;2022-11-18T13:06:19;2.60;;;1.87;;
16998;SDS011;10211;49.476;11.010;2022-11-18T13:08:49;3.43;;;1.70;;
16998;SDS011;10211;49.476;11.010;2022-11-18T13:11:19;2.47;;;1.93;;
16998;SDS011;10211;49.476;11.010;2022-11-18T13:14:05;2.03;;;1.60;;
16998;SDS011;10211;49.476;11.010;2022-11-18T13:16:58;1.37;;;1.27;;
16998;SDS011;10211;49.476;11.010;2022-11-18T13:19:52;1.60;;;1.50;;
16998;SDS011;10211;49.476;11.010;2022-11-18T13:22:21;4.00;;;1.97;;
16998;SDS011;10211;49.476;11.010;2022-11-18T13:25:19;1.70;;;1.60;;
16998;SDS011;10211;49.476;11.010;2022-11-18T13:27:50;2.83;;;1.50;;
16998;SDS011;10211;49.476;11.010;2022-11-18T13:30:23;4.50;;;1.50;;
16998;SDS011;10211;49.476;11.010;2022-11-18T13:32:51;1.73;;;1.60;;
16998;SDS011;10211;49.476;11.010;2022-11-18T13:35:23;1.63;;;1.47;;
16998;SDS011;10211;49.476;11.010;2022-11-18T13:37:52;1.53;;;1.43;;
16998;SDS011;10211;49.476;11.010;2022-11-18T13:40:21;2.10;;;1.90;;
16998;SDS011;10211;49.476;11.010;2022-11-18T13:42:51;1.80;;;1.70;;
16998;SDS011;10211;49.476;11.010;2022-11-18T13:45:19;1.63;;;1.50;;
16998;SDS011;10211;49.476;11.010;2022-11-18T13:47:49;1.60;;;1.50;;
16998;SDS011;10211;49.476;11.010;2022-11-18T13:50:19;1.83;;;1.73;;
16998;SDS011;10211;49.476;11.010;2022-11-18T13:52:51;1.73;;;1.63;;
16998;SDS011;10211;49.476;11.010;2022-11-18T13:55:26;1.90;;;1.50;;
16998;SDS011;10211;49.476;11.010;2022-11-18T13:57:59;2.90;;;1.97;;
16998;SDS011;10211;49.476;11.010;2022-11-18T14:00:29;3.23;;;1.73;;
16998;SDS011;10211;49.476;11.010;2022-11-18T14:02:58;2.03;;;1.93;;
16998;SDS011;10211;49.476;11.010;2022-11-18T14:05:28;2.23;;;1.70;;
16998;SDS011;10211;49.476;11.010;2022-11-18T14:07:57;2.43;;;1.90;;
16998;SDS011;10211;49.476;11.010;2022-11-18T14:10:31;1.67;;;1.57;;
16998;SDS011;10211;49.476;11.010;2022-11-18T14:13:00;1.53;;;1.43;;
16998;SDS011;10211;49.476;11.010;2022-11-18T14:15:34;2.17;;;1.67;;
16998;SDS011;10211;49.476;11.010;2022-11-18T14:18:02;2.67;;;1.70;;
16998;SDS011;10211;49.476;11.010;2022-11-18T14:20:48;1.70;;;1.60;;
16998;SDS011;10211;49.476;11.010;2022-11-18T14:23:25;1.60;;;1.50;;
16998;SDS011;10211;49.476;11.010;2022-11-18T14:25:53;1.83;;;1.57;;
16998;SDS011;10211;49.476;11.010;2022-11-18T14:28:24;4.03;;;1.83;;
16998;SDS011;10211;49.476;11.010;2022-11-18T14:30:59;1.47;;;1.37;;
16998;SDS011;10211;49.476;11.010;2022-11-18T14:33:29;1.97;;;1.60;;
16998;SDS011;10211;49.476;11.010;2022-11-18T14:35:57;5.10;;;1.53;;
16998;SDS011;10211;49.476;11.010;2022-11-18T14:38:29;1.50;;;1.40;;
16998;SDS011;10211;49.476;11.010;2022-11-18T14:41:03;1.60;;;1.40;;
16998;SDS011;10211;49.476;11.010;2022-11-18T14:43:33;1.53;;;1.40;;
16998;SDS011;10211;49.476;11.010;2022-11-18T14:46:00;1.93;;;1.60;;
16998;SDS011;10211;49.476;11.010;2022-11-18T14:48:29;2.80;;;2.10;;
16998;SDS011;10211;49.476;11.010;2022-11-18T14:50:57;4.23;;;3.03;;
16998;SDS011;10211;49.476;11.010;2022-11-18T14:53:24;3.07;;;1.90;;
16998;SDS011;10211;49.476;11.010;2022-11-18T14:55:51;2.30;;;2.10;;
16998;SDS011;10211;49.476;11.010;2022-11-18T14:58:21;2.43;;;2.20;;
16998;SDS011;10211;49.476;11.010;2022-11-18T15:00:49;3.83;;;1.70;;
16998;SDS011;10211;49.476;11.010;2022-11-18T15:03:16;2.27;;;1.70;;
16998;SDS011;10211;49.476;11.010;2022-11-18T15:05:43;1.80;;;1.70;;
16998;SDS011;10211;49.476;11.010;2022-11-18T15:08:10;1.90;;;1.53;;
16998;SDS011;10211;49.476;11.010;2022-11-18T15:10:37;4.30;;;1.47;;
16998;SDS011;10211;49.476;11.010;2022-11-18T15:13:04;2.87;;;1.70;;